Time,TemperatureF,DewpointF,PressureIn,WindDirection,WindDirectionDegrees,WindSpeedMPH,WindSpeedGustMPH,Humidity,HourlyPrecipIn,Conditions,Clouds,dailyrainin,SoftwareType,DateUTC
2013-06-09 00:01:00,58.5,57.6,30.01,ENE,61,0.0,0.0,97,0.00,,,0.00,meteohub,2013-06-09 04:01:00,
2013-06-09 00:02:00,58.3,57.4,30.01,ENE,60,0.0,0.0,97,0.00,,,0.00,meteohub,2013-06-09 04:02:00,
2013-06-09 00:04:00,58.3,57.4,30.01,ENE,60,0.0,0.0,97,0.00,,,0.00,meteohub,2013-06-09 04:04:00,
2013-06-09 00:07:00,58.3,57.4,30.01,ENE,60,0.0,0.0,97,0.00,,,0.00,meteohub,2013-06-09 04:07:00,
2013-06-09 00:12:00,57.9,57.4,30.01,ENE,61,0.0,0.0,98,0.00,,,0.00,meteohub,2013-06-09 04:12:00,
2013-06-09 00:17:00,57.7,57.2,30.01,ENE,61,0.0,0.0,98,0.00,,,0.00,meteohub,2013-06-09 04:17:00,
2013-06-09 00:22:00,57.7,57.2,30.01,ENE,61,0.0,0.0,98,0.00,,,0.00,meteohub,2013-06-09 04:22:00,
2013-06-09 00:28:00,57.7,57.2,30.02,ENE,61,0.0,0.0,98,0.00,,,0.00,meteohub,2013-06-09 04:28:00,
2013-06-09 00:33:00,57.7,57.2,30.02,ENE,61,0.0,0.0,98,0.00,,,0.00,meteohub,2013-06-09 04:33:00,
2013-06-09 00:38:00,57.6,57.0,30.02,ENE,61,0.0,0.0,98,0.00,,,0.00,meteohub,2013-06-09 04:38:00,
2013-06-09 00:43:00,57.0,56.1,30.02,ENE,61,0.0,0.0,97,0.00,,,0.00,meteohub,2013-06-09 04:43:00,
2013-06-09 00:48:00,56.8,56.3,30.02,ENE,60,0.0,0.0,98,0.00,,,0.00,meteohub,2013-06-09 04:48:00,
2013-06-09 00:54:00,56.8,56.3,30.02,ENE,60,0.0,0.0,98,0.00,,,0.00,meteohub,2013-06-09 04:54:00,
2013-06-09 00:59:00,56.7,56.1,30.02,ENE,60,0.0,0.0,98,0.00,,,0.00,meteohub,2013-06-09 04:59:00,
2013-06-09 01:04:00,56.7,56.1,30.02,ENE,61,0.0,0.0,98,0.00,,,0.00,meteohub,2013-06-09 05:04:00,
2013-06-09 01:09:00,56.7,56.1,30.02,ENE,60,0.0,0.0,98,0.00,,,0.00,meteohub,2013-06-09 05:09:00,
2013-06-09 01:14:00,56.5,55.9,30.02,ENE,60,0.0,0.0,98,0.00,,,0.00,meteohub,2013-06-09 05:14:00,
2013-06-09 01:19:00,56.5,55.9,30.02,ENE,60,0.0,0.0,98,0.00,,,0.00,meteohub,2013-06-09 05:19:00,
2013-06-09 01:24:00,56.3,55.8,30.02,ENE,61,0.0,0.0,98,0.00,,,0.00,meteohub,2013-06-09 05:24:00,
2013-06-09 01:29:00,56.3,55.8,30.02,ENE,60,0.0,0.0,98,0.00,,,0.00,meteohub,2013-06-09 05:29:00,
2013-06-09 01:35:00,56.1,55.6,30.02,ENE,60,0.0,0.0,98,0.00,,,0.00,meteohub,2013-06-09 05:35:00,
2013-06-09 01:40:00,55.9,55.4,30.02,ENE,60,0.0,0.0,98,0.00,,,0.00,meteohub,2013-06-09 05:40:00,
2013-06-09 01:45:00,56.1,55.6,30.03,ENE,60,0.0,0.0,98,0.00,,,0.00,meteohub,2013-06-09 05:45:00,
2013-06-09 01:50:00,55.9,55.4,30.03,ENE,60,0.0,0.0,98,0.00,,,0.00,meteohub,2013-06-09 05:50:00,
2013-06-09 01:55:00,55.8,55.2,30.03,ENE,60,0.0,0.0,98,0.00,,,0.00,meteohub,2013-06-09 05:55:00,
2013-06-09 02:01:00,55.6,55.0,30.02,ENE,60,0.0,0.0,98,0.00,,,0.00,meteohub,2013-06-09 06:01:00,
2013-06-09 02:06:00,55.6,55.0,30.02,ENE,60,0.0,0.0,98,0.00,,,0.00,meteohub,2013-06-09 06:06:00,
2013-06-09 02:11:00,55.2,54.7,30.03,ENE,61,0.0,0.0,98,0.00,,,0.00,meteohub,2013-06-09 06:11:00,
2013-06-09 02:16:00,55.4,54.9,30.02,ENE,60,0.0,0.0,98,0.00,,,0.00,meteohub,2013-06-09 06:16:00,
2013-06-09 02:21:00,55.2,54.7,30.02,ENE,60,0.0,0.0,98,0.00,,,0.00,meteohub,2013-06-09 06:21:00,
2013-06-09 02:26:00,55.0,54.5,30.02,ENE,61,0.0,0.0,98,0.00,,,0.00,meteohub,2013-06-09 06:26:00,
2013-06-09 02:31:00,55.0,54.5,30.02,ENE,60,0.0,0.0,98,0.00,,,0.00,meteohub,2013-06-09 06:31:00,
2013-06-09 02:37:00,54.7,54.1,30.03,ENE,61,0.0,0.0,98,0.00,,,0.00,meteohub,2013-06-09 06:37:00,
2013-06-09 02:42:00,54.5,54.0,30.03,ENE,60,0.0,0.0,98,0.00,,,0.00,meteohub,2013-06-09 06:42:00,
2013-06-09 02:47:00,54.1,53.6,30.03,ENE,60,0.0,0.0,98,0.00,,,0.00,meteohub,2013-06-09 06:47:00,
2013-06-09 02:52:00,54.1,53.6,30.03,ENE,61,0.0,0.0,98,0.00,,,0.00,meteohub,2013-06-09 06:52:00,
2013-06-09 02:57:00,54.0,53.4,30.03,ENE,60,0.0,0.0,98,0.00,,,0.00,meteohub,2013-06-09 06:57:00,
2013-06-09 03:02:00,53.8,53.2,30.03,ENE,61,0.0,0.0,98,0.00,,,0.00,meteohub,2013-06-09 07:02:00,
2013-06-09 03:07:00,54.0,53.4,30.03,ENE,61,0.0,0.0,98,0.00,,,0.00,meteohub,2013-06-09 07:07:00,
2013-06-09 03:12:00,53.8,53.2,30.03,ENE,60,0.0,0.0,98,0.00,,,0.00,meteohub,2013-06-09 07:12:00,
2013-06-09 03:17:00,54.0,53.4,30.03,ENE,61,0.0,0.0,98,0.00,,,0.00,meteohub,2013-06-09 07:17:00,
2013-06-09 03:22:00,53.8,53.2,30.03,ENE,60,0.0,0.0,98,0.00,,,0.00,meteohub,2013-06-09 07:22:00,
2013-06-09 03:28:00,53.4,52.9,30.03,ENE,60,0.0,0.0,98,0.00,,,0.00,meteohub,2013-06-09 07:28:00,
2013-06-09 03:33:00,53.2,52.7,30.03,ENE,61,0.0,0.0,98,0.00,,,0.00,meteohub,2013-06-09 07:33:00,
2013-06-09 03:38:00,52.9,52.3,30.03,ENE,60,0.0,0.0,98,0.00,,,0.00,meteohub,2013-06-09 07:38:00,
2013-06-09 03:43:00,52.5,52.0,30.03,ENE,60,0.0,0.0,98,0.00,,,0.00,meteohub,2013-06-09 07:43:00,
2013-06-09 03:48:00,52.3,51.8,30.04,ENE,61,0.0,0.0,98,0.00,,,0.00,meteohub,2013-06-09 07:48:00,
2013-06-09 03:53:00,52.3,51.8,30.04,ENE,61,0.0,0.0,98,0.00,,,0.00,meteohub,2013-06-09 07:53:00,
2013-06-09 03:58:00,52.3,51.8,30.04,ENE,60,0.0,0.0,98,0.00,,,0.00,meteohub,2013-06-09 07:58:00,
2013-06-09 04:03:00,52.2,51.6,30.04,ENE,61,0.0,0.0,98,0.00,,,0.00,meteohub,2013-06-09 08:03:00,
2013-06-09 04:08:00,52.0,51.4,30.04,ENE,60,0.0,0.0,98,0.00,,,0.00,meteohub,2013-06-09 08:08:00,
2013-06-09 04:13:00,52.3,52.0,30.04,ENE,60,0.0,0.0,99,0.00,,,0.00,meteohub,2013-06-09 08:13:00,
2013-06-09 04:18:00,52.3,52.0,30.04,ENE,61,0.0,0.0,99,0.00,,,0.00,meteohub,2013-06-09 08:18:00,
2013-06-09 04:24:00,52.0,51.4,30.04,ENE,60,0.0,0.0,98,0.00,,,0.00,meteohub,2013-06-09 08:24:00,
2013-06-09 04:29:00,51.8,51.3,30.04,ENE,61,0.0,0.0,98,0.00,,,0.00,meteohub,2013-06-09 08:29:00,
2013-06-09 04:34:00,51.4,50.9,30.05,ENE,61,0.0,0.0,98,0.00,,,0.00,meteohub,2013-06-09 08:34:00,
2013-06-09 04:39:00,51.3,50.7,30.05,ENE,60,0.0,0.0,98,0.00,,,0.00,meteohub,2013-06-09 08:39:00,
2013-06-09 04:44:00,51.4,50.9,30.06,ENE,60,0.0,0.0,98,0.00,,,0.00,meteohub,2013-06-09 08:44:00,
2013-06-09 04:49:00,51.3,50.9,30.06,ENE,60,0.0,0.0,99,0.00,,,0.00,meteohub,2013-06-09 08:49:00,
2013-06-09 04:54:00,51.1,50.5,30.06,ENE,60,0.0,0.0,98,0.00,,,0.00,meteohub,2013-06-09 08:54:00,
2013-06-09 04:59:00,51.3,50.9,30.06,ENE,61,0.0,0.0,99,0.00,,,0.00,meteohub,2013-06-09 08:59:00,
2013-06-09 05:04:00,51.3,50.9,30.06,ENE,60,0.0,0.0,99,0.00,,,0.00,meteohub,2013-06-09 09:04:00,
2013-06-09 05:10:00,51.1,50.5,30.06,ENE,61,0.0,0.0,98,0.00,,,0.00,meteohub,2013-06-09 09:10:00,
2013-06-09 05:15:00,50.7,50.2,30.07,ENE,61,0.0,0.0,98,0.00,,,0.00,meteohub,2013-06-09 09:15:00,
2013-06-09 05:20:00,50.5,50.0,30.07,ENE,61,0.0,0.0,98,0.00,,,0.00,meteohub,2013-06-09 09:20:00,
2013-06-09 05:25:00,50.5,50.0,30.07,ENE,61,0.0,0.0,98,0.00,,,0.00,meteohub,2013-06-09 09:25:00,
2013-06-09 05:30:00,50.4,49.8,30.08,ENE,60,0.0,0.0,98,0.00,,,0.00,meteohub,2013-06-09 09:30:00,
2013-06-09 05:36:00,50.4,49.8,30.08,ENE,61,0.0,0.0,98,0.00,,,0.00,meteohub,2013-06-09 09:36:00,
2013-06-09 05:41:00,50.2,49.8,30.08,ENE,61,0.0,0.0,99,0.00,,,0.00,meteohub,2013-06-09 09:41:00,
2013-06-09 05:46:00,50.2,49.8,30.09,ENE,60,0.0,0.0,99,0.00,,,0.00,meteohub,2013-06-09 09:46:00,
2013-06-09 05:51:00,50.4,50.0,30.09,ENE,61,0.0,0.0,99,0.00,,,0.00,meteohub,2013-06-09 09:51:00,
2013-06-09 05:57:00,50.7,50.4,30.09,ENE,60,0.0,0.0,99,0.00,,,0.00,meteohub,2013-06-09 09:57:00,
2013-06-09 06:02:00,50.9,50.5,30.09,ENE,61,0.0,0.0,99,0.00,,,0.00,meteohub,2013-06-09 10:02:00,
2013-06-09 06:07:00,50.9,50.5,30.09,ENE,61,0.0,0.0,99,0.00,,,0.00,meteohub,2013-06-09 10:07:00,
2013-06-09 06:12:00,51.3,50.9,30.09,ENE,60,0.0,0.0,99,0.00,,,0.00,meteohub,2013-06-09 10:12:00,
2013-06-09 06:17:00,51.4,51.1,30.08,ENE,61,0.0,0.0,99,0.00,,,0.00,meteohub,2013-06-09 10:17:00,
2013-06-09 06:22:00,51.8,51.4,30.09,ENE,60,0.0,0.0,99,0.00,,,0.00,meteohub,2013-06-09 10:22:00,
2013-06-09 06:28:00,52.5,52.2,30.09,ENE,60,0.0,0.0,99,0.00,,,0.00,meteohub,2013-06-09 10:28:00,
2013-06-09 06:33:00,53.2,52.9,30.09,ENE,60,0.0,0.0,99,0.00,,,0.00,meteohub,2013-06-09 10:33:00,
2013-06-09 06:38:00,53.6,53.2,30.09,ENE,60,0.0,0.0,99,0.00,,,0.00,meteohub,2013-06-09 10:38:00,
2013-06-09 06:43:00,54.5,54.1,30.09,ENE,60,0.0,0.0,99,0.00,,,0.00,meteohub,2013-06-09 10:43:00,
2013-06-09 06:48:00,55.9,55.6,30.09,ENE,61,0.0,0.0,99,0.00,,,0.00,meteohub,2013-06-09 10:48:00,
2013-06-09 06:53:00,55.8,55.4,30.09,ENE,60,0.0,0.0,99,0.00,,,0.00,meteohub,2013-06-09 10:53:00,
2013-06-09 06:58:00,56.5,55.9,30.09,ENE,60,0.0,0.0,98,0.00,,,0.00,meteohub,2013-06-09 10:58:00,
2013-06-09 07:04:00,57.4,56.8,30.09,ENE,60,0.0,0.0,98,0.00,,,0.00,meteohub,2013-06-09 11:04:00,
2013-06-09 07:09:00,57.6,56.7,30.09,ENE,61,0.0,0.0,97,0.00,,,0.00,meteohub,2013-06-09 11:09:00,
2013-06-09 07:14:00,58.3,57.4,30.09,ENE,60,0.0,0.0,97,0.00,,,0.00,meteohub,2013-06-09 11:14:00,
2013-06-09 07:19:00,57.9,57.0,30.10,ENE,61,0.0,0.0,97,0.00,,,0.00,meteohub,2013-06-09 11:19:00,
2013-06-09 07:24:00,58.3,57.4,30.10,ENE,60,0.0,0.0,97,0.00,,,0.00,meteohub,2013-06-09 11:24:00,
2013-06-09 07:30:00,58.6,57.7,30.10,ENE,61,0.0,0.0,97,0.00,,,0.00,meteohub,2013-06-09 11:30:00,
2013-06-09 07:35:00,59.0,58.1,30.10,ENE,60,0.0,0.0,97,0.00,,,0.00,meteohub,2013-06-09 11:35:00,
2013-06-09 07:40:00,59.5,58.6,30.10,ENE,60,0.0,0.0,97,0.00,,,0.00,meteohub,2013-06-09 11:40:00,
2013-06-09 07:45:00,60.6,60.1,30.11,ENE,60,0.0,0.0,98,0.00,,,0.00,meteohub,2013-06-09 11:45:00,
2013-06-09 07:50:00,61.3,60.4,30.11,ENE,61,0.0,0.0,97,0.00,,,0.00,meteohub,2013-06-09 11:50:00,
2013-06-09 07:55:00,62.1,61.0,30.11,ENE,60,0.0,0.0,96,0.00,,,0.00,meteohub,2013-06-09 11:55:00,
2013-06-09 08:00:00,62.4,61.0,30.11,ENE,61,0.0,0.0,95,0.00,,,0.00,meteohub,2013-06-09 12:00:00,
2013-06-09 08:05:00,63.0,61.5,30.11,ENE,60,0.0,0.0,95,0.00,,,0.00,meteohub,2013-06-09 12:05:00,
2013-06-09 08:11:00,63.3,61.5,30.11,ENE,60,0.0,0.0,94,0.00,,,0.00,meteohub,2013-06-09 12:11:00,
2013-06-09 08:16:00,63.9,62.1,30.11,ENE,60,0.0,0.0,94,0.00,,,0.00,meteohub,2013-06-09 12:16:00,
2013-06-09 08:21:00,64.8,63.0,30.11,ENE,60,0.0,0.0,94,0.00,,,0.00,meteohub,2013-06-09 12:21:00,
2013-06-09 08:26:00,65.7,63.0,30.11,NNE,16,0.0,0.0,91,0.00,,,0.00,meteohub,2013-06-09 12:26:00,
2013-06-09 08:32:00,66.2,62.2,30.11,NNE,14,0.0,0.0,87,0.00,,,0.00,meteohub,2013-06-09 12:32:00,
2013-06-09 08:37:00,67.3,63.7,30.11,NNE,17,0.0,0.0,88,0.00,,,0.00,meteohub,2013-06-09 12:37:00,
2013-06-09 08:42:00,68.2,63.5,30.11,NE,40,0.0,2.0,85,0.00,,,0.00,meteohub,2013-06-09 12:42:00,
2013-06-09 08:47:00,68.2,62.8,30.11,NNE,13,0.0,2.0,83,0.00,,,0.00,meteohub,2013-06-09 12:47:00,
2013-06-09 08:52:00,68.5,62.8,30.11,NNE,13,0.0,2.0,82,0.00,,,0.00,meteohub,2013-06-09 12:52:00,
2013-06-09 08:57:00,69.3,63.1,30.12,NNE,13,0.0,0.0,81,0.00,,,0.00,meteohub,2013-06-09 12:57:00,
2013-06-09 09:02:00,70.0,63.5,30.12,NNE,20,0.0,0.0,80,0.00,,,0.00,meteohub,2013-06-09 13:02:00,
2013-06-09 09:07:00,71.2,64.0,30.12,NNE,30,0.0,0.0,78,0.00,,,0.00,meteohub,2013-06-09 13:07:00,
2013-06-09 09:12:00,71.8,63.0,30.12,WNW,290,1.0,0.0,74,0.00,,,0.00,meteohub,2013-06-09 13:12:00,
2013-06-09 09:17:00,71.4,64.2,30.12,WNW,291,0.0,2.0,78,0.00,,,0.00,meteohub,2013-06-09 13:17:00,
2013-06-09 09:22:00,72.1,64.2,30.11,West,278,0.0,2.0,76,0.00,,,0.00,meteohub,2013-06-09 13:22:00,
2013-06-09 09:27:00,72.9,64.4,30.11,ENE,76,3.0,3.0,75,0.00,,,0.00,meteohub,2013-06-09 13:27:00,
2013-06-09 09:32:00,72.0,63.7,30.11,East,100,1.0,3.0,75,0.00,,,0.00,meteohub,2013-06-09 13:32:00,
2013-06-09 09:37:00,71.8,63.5,30.11,ENE,66,1.0,3.0,75,0.00,,,0.00,meteohub,2013-06-09 13:37:00,
2013-06-09 09:43:00,72.0,62.1,30.11,East,87,0.0,3.0,71,0.00,,,0.00,meteohub,2013-06-09 13:43:00,
2013-06-09 09:48:00,72.3,62.4,30.11,NE,41,2.0,3.0,71,0.00,,,0.00,meteohub,2013-06-09 13:48:00,
2013-06-09 09:53:00,72.3,62.8,30.11,NE,56,2.0,2.0,72,0.00,,,0.00,meteohub,2013-06-09 13:53:00,
2013-06-09 09:58:00,72.7,63.1,30.11,East,84,0.0,3.0,72,0.00,,,0.00,meteohub,2013-06-09 13:58:00,
2013-06-09 10:04:00,73.6,62.8,30.12,WSW,246,2.0,3.0,69,0.00,,,0.00,meteohub,2013-06-09 14:04:00,
2013-06-09 10:09:00,74.1,62.1,30.12,WNW,297,1.0,3.0,66,0.00,,,0.00,meteohub,2013-06-09 14:09:00,
2013-06-09 10:14:00,74.7,63.9,30.12,NE,47,0.0,3.0,69,0.00,,,0.00,meteohub,2013-06-09 14:14:00,
2013-06-09 10:19:00,75.0,62.1,30.12,SSW,197,1.0,3.0,64,0.00,,,0.00,meteohub,2013-06-09 14:19:00,
2013-06-09 10:24:00,75.6,61.7,30.11,SE,137,1.0,2.0,62,0.00,,,0.00,meteohub,2013-06-09 14:24:00,
2013-06-09 10:29:00,75.6,61.7,30.11,ENE,63,1.0,2.0,62,0.00,,,0.00,meteohub,2013-06-09 14:29:00,
2013-06-09 10:34:00,75.2,60.8,30.11,NNE,32,1.0,3.0,61,0.00,,,0.00,meteohub,2013-06-09 14:34:00,
2013-06-09 10:39:00,75.2,60.8,30.11,ENE,68,0.0,3.0,61,0.00,,,0.00,meteohub,2013-06-09 14:39:00,
2013-06-09 10:44:00,75.7,63.1,30.11,WNW,301,0.0,4.0,65,0.00,,,0.00,meteohub,2013-06-09 14:44:00,
2013-06-09 10:50:00,76.6,62.2,30.11,NNE,33,2.0,4.0,61,0.00,,,0.00,meteohub,2013-06-09 14:50:00,
2013-06-09 10:55:00,76.6,62.2,30.10,SSW,205,1.0,3.0,61,0.00,,,0.00,meteohub,2013-06-09 14:55:00,
2013-06-09 11:00:00,76.8,64.2,30.11,East,101,0.0,4.0,65,0.00,,,0.00,meteohub,2013-06-09 15:00:00,
2013-06-09 11:05:00,77.7,63.1,30.10,WSW,256,2.0,4.0,61,0.00,,,0.00,meteohub,2013-06-09 15:05:00,
2013-06-09 11:10:00,78.3,61.7,30.10,SW,233,0.0,3.0,57,0.00,,,0.00,meteohub,2013-06-09 15:10:00,
2013-06-09 11:15:00,78.4,61.5,30.10,WSW,249,0.0,3.0,56,0.00,,,0.00,meteohub,2013-06-09 15:15:00,
2013-06-09 11:20:00,78.6,61.2,30.10,West,281,1.0,4.0,55,0.00,,,0.00,meteohub,2013-06-09 15:20:00,
2013-06-09 11:26:00,78.6,62.6,30.11,WNW,288,2.0,4.0,58,0.00,,,0.00,meteohub,2013-06-09 15:26:00,
2013-06-09 11:31:00,78.8,64.8,30.11,South,172,1.0,3.0,62,0.00,,,0.00,meteohub,2013-06-09 15:31:00,
2013-06-09 11:36:00,79.0,61.5,30.11,East,96,1.0,2.0,55,0.00,,,0.00,meteohub,2013-06-09 15:36:00,
2013-06-09 11:41:00,79.0,63.5,30.10,ESE,117,0.0,4.0,59,0.00,,,0.00,meteohub,2013-06-09 15:41:00,
2013-06-09 11:46:00,79.2,62.1,30.10,SSW,205,2.0,4.0,56,0.00,,,0.00,meteohub,2013-06-09 15:46:00,
2013-06-09 11:51:00,79.0,61.5,30.10,West,277,2.0,6.0,55,0.00,,,0.00,meteohub,2013-06-09 15:51:00,
2013-06-09 11:56:00,78.4,61.9,30.10,South,187,0.0,6.0,57,0.00,,,0.00,meteohub,2013-06-09 15:56:00,
2013-06-09 12:02:00,79.2,63.7,30.10,West,281,1.0,6.0,59,0.00,,,0.00,meteohub,2013-06-09 16:02:00,
2013-06-09 12:07:00,79.5,63.5,30.10,West,278,0.0,4.0,58,0.00,,,0.00,meteohub,2013-06-09 16:07:00,
2013-06-09 12:12:00,79.3,61.7,30.10,West,280,0.0,3.0,55,0.00,,,0.00,meteohub,2013-06-09 16:12:00,
2013-06-09 12:17:00,79.9,62.8,30.10,East,97,0.0,3.0,56,0.00,,,0.00,meteohub,2013-06-09 16:17:00,
2013-06-09 12:22:00,80.1,61.9,30.10,WNW,298,2.0,3.0,54,0.00,,,0.00,meteohub,2013-06-09 16:22:00,
2013-06-09 12:27:00,79.7,61.0,30.09,West,260,1.0,4.0,53,0.00,,,0.00,meteohub,2013-06-09 16:27:00,
2013-06-09 12:32:00,79.9,61.7,30.09,ESE,103,0.0,4.0,54,0.00,,,0.00,meteohub,2013-06-09 16:32:00,
2013-06-09 12:37:00,79.9,60.6,30.09,SW,236,3.0,4.0,52,0.00,,,0.00,meteohub,2013-06-09 16:37:00,
2013-06-09 12:42:00,79.7,60.4,30.09,SSW,212,2.0,5.0,52,0.00,,,0.00,meteohub,2013-06-09 16:42:00,
2013-06-09 12:47:00,79.5,59.2,30.09,SW,220,2.0,5.0,50,0.00,,,0.00,meteohub,2013-06-09 16:47:00,
2013-06-09 12:52:00,79.5,60.8,30.09,West,269,1.0,5.0,53,0.00,,,0.00,meteohub,2013-06-09 16:52:00,
2013-06-09 12:58:00,79.9,60.1,30.09,West,273,1.0,5.0,51,0.00,,,0.00,meteohub,2013-06-09 16:58:00,
2013-06-09 13:03:00,79.9,60.1,30.09,SW,226,0.0,5.0,51,0.00,,,0.00,meteohub,2013-06-09 17:03:00,
2013-06-09 13:08:00,80.2,61.5,30.09,WSW,242,3.0,4.0,53,0.00,,,0.00,meteohub,2013-06-09 17:08:00,
2013-06-09 13:13:00,80.1,62.4,30.09,WNW,283,1.0,4.0,55,0.00,,,0.00,meteohub,2013-06-09 17:13:00,
2013-06-09 13:18:00,80.4,61.7,30.09,West,262,3.0,4.0,53,0.00,,,0.00,meteohub,2013-06-09 17:18:00,
2013-06-09 13:23:00,80.1,61.3,30.08,WNW,285,2.0,5.0,53,0.00,,,0.00,meteohub,2013-06-09 17:23:00,
2013-06-09 13:29:00,80.2,61.5,30.08,SW,217,1.0,5.0,53,0.00,,,0.00,meteohub,2013-06-09 17:29:00,
2013-06-09 13:34:00,80.8,63.1,30.08,West,259,1.0,5.0,55,0.00,,,0.00,meteohub,2013-06-09 17:34:00,
2013-06-09 13:39:00,81.1,64.9,30.08,SE,141,1.0,5.0,58,0.00,,,0.00,meteohub,2013-06-09 17:39:00,
2013-06-09 13:45:00,81.9,63.5,30.08,SSE,158,4.0,5.0,54,0.00,,,0.00,meteohub,2013-06-09 17:45:00,
2013-06-09 13:50:00,82.2,66.0,30.07,SSE,158,2.0,5.0,58,0.00,,,0.00,meteohub,2013-06-09 17:50:00,
2013-06-09 13:55:00,82.4,61.9,30.08,West,276,3.0,5.0,50,0.00,,,0.00,meteohub,2013-06-09 17:55:00,
2013-06-09 14:00:00,81.1,61.3,30.08,West,276,0.0,6.0,51,0.00,,,0.00,meteohub,2013-06-09 18:00:00,
2013-06-09 14:05:00,81.1,63.5,30.08,SSE,152,2.0,6.0,55,0.00,,,0.00,meteohub,2013-06-09 18:05:00,
2013-06-09 14:11:00,82.0,63.7,30.07,NE,35,0.0,6.0,54,0.00,,,0.00,meteohub,2013-06-09 18:11:00,
2013-06-09 14:17:00,82.0,60.4,30.07,West,269,2.0,6.0,48,0.00,,,0.00,meteohub,2013-06-09 18:17:00,
2013-06-09 14:22:00,81.5,62.8,30.07,SW,229,2.0,6.0,53,0.00,,,0.00,meteohub,2013-06-09 18:22:00,
2013-06-09 14:27:00,81.1,62.4,30.07,SW,228,0.0,6.0,53,0.00,,,0.00,meteohub,2013-06-09 18:27:00,
2013-06-09 14:32:00,81.0,62.2,30.07,WNW,287,0.0,6.0,53,0.00,,,0.00,meteohub,2013-06-09 18:32:00,
2013-06-09 14:37:00,81.3,62.1,30.07,SSW,193,0.0,3.0,52,0.00,,,0.00,meteohub,2013-06-09 18:37:00,
2013-06-09 14:42:00,81.7,62.4,30.06,South,184,2.0,3.0,52,0.00,,,0.00,meteohub,2013-06-09 18:42:00,
2013-06-09 14:47:00,81.9,63.0,30.06,SW,236,1.0,4.0,53,0.00,,,0.00,meteohub,2013-06-09 18:47:00,
2013-06-09 14:52:00,82.4,64.0,30.07,SW,228,2.0,5.0,54,0.00,,,0.00,meteohub,2013-06-09 18:52:00,
2013-06-09 14:57:00,82.6,62.1,30.07,West,278,1.0,5.0,50,0.00,,,0.00,meteohub,2013-06-09 18:57:00,
2013-06-09 15:03:00,82.0,61.0,30.07,WNW,292,1.0,7.0,49,0.00,,,0.00,meteohub,2013-06-09 19:03:00,
2013-06-09 15:08:00,81.9,63.0,30.06,West,270,0.0,9.0,53,0.00,,,0.00,meteohub,2013-06-09 19:08:00,
2013-06-09 15:13:00,81.3,62.1,30.07,WSW,250,3.0,9.0,52,0.00,,,0.00,meteohub,2013-06-09 19:13:00,
2013-06-09 15:18:00,81.0,61.7,30.06,West,274,1.0,9.0,52,0.00,,,0.00,meteohub,2013-06-09 19:18:00,
2013-06-09 15:23:00,81.7,63.9,30.06,SSW,200,2.0,5.0,55,0.00,,,0.00,meteohub,2013-06-09 19:23:00,
2013-06-09 15:28:00,82.0,61.5,30.06,WSW,256,1.0,5.0,50,0.00,,,0.00,meteohub,2013-06-09 19:28:00,
2013-06-09 15:33:00,81.7,63.0,30.06,SSW,205,0.0,5.0,53,0.00,,,0.00,meteohub,2013-06-09 19:33:00,
2013-06-09 15:39:00,82.0,63.1,30.06,West,274,2.0,5.0,53,0.00,,,0.00,meteohub,2013-06-09 19:39:00,
2013-06-09 15:44:00,82.6,64.8,30.05,ENE,65,0.0,5.0,55,0.00,,,0.00,meteohub,2013-06-09 19:44:00,
2013-06-09 15:49:00,82.8,62.2,30.05,West,259,2.0,3.0,50,0.00,,,0.00,meteohub,2013-06-09 19:49:00,
2013-06-09 15:54:00,82.6,62.1,30.05,WSW,254,1.0,5.0,50,0.00,,,0.00,meteohub,2013-06-09 19:54:00,
2013-06-09 15:59:00,82.9,61.9,30.05,WNW,283,1.0,5.0,49,0.00,,,0.00,meteohub,2013-06-09 19:59:00,
2013-06-09 16:04:00,82.9,63.0,30.04,SW,225,2.0,5.0,51,0.00,,,0.00,meteohub,2013-06-09 20:04:00,
2013-06-09 16:10:00,83.1,63.7,30.04,SSW,208,0.0,3.0,52,0.00,,,0.00,meteohub,2013-06-09 20:10:00,
2013-06-09 16:15:00,82.8,63.3,30.04,West,262,0.0,3.0,52,0.00,,,0.00,meteohub,2013-06-09 20:15:00,
2013-06-09 16:20:00,83.1,63.1,30.04,South,190,1.0,4.0,51,0.00,,,0.00,meteohub,2013-06-09 20:20:00,
2013-06-09 16:25:00,83.1,63.7,30.04,SSW,209,0.0,4.0,52,0.00,,,0.00,meteohub,2013-06-09 20:25:00,
2013-06-09 16:30:00,83.7,63.7,30.04,WSW,249,0.0,4.0,51,0.00,,,0.00,meteohub,2013-06-09 20:30:00,
2013-06-09 16:36:00,83.5,64.0,30.04,WNW,294,1.0,5.0,52,0.00,,,0.00,meteohub,2013-06-09 20:36:00,
2013-06-09 16:41:00,83.5,65.1,30.04,North,357,0.0,5.0,54,0.00,,,0.00,meteohub,2013-06-09 20:41:00,
2013-06-09 16:46:00,83.5,60.4,30.04,WSW,244,1.0,5.0,46,0.00,,,0.00,meteohub,2013-06-09 20:46:00,
2013-06-09 16:51:00,82.9,61.9,30.04,WNW,288,0.0,4.0,49,0.00,,,0.00,meteohub,2013-06-09 20:51:00,
2013-06-09 16:57:00,83.5,62.2,30.04,WNW,284,1.0,4.0,49,0.00,,,0.00,meteohub,2013-06-09 20:57:00,
2013-06-09 17:02:00,83.7,63.0,30.04,WSW,255,0.0,4.0,50,0.00,,,0.00,meteohub,2013-06-09 21:02:00,
2013-06-09 17:07:00,83.7,63.0,30.03,ESE,121,1.0,3.0,50,0.00,,,0.00,meteohub,2013-06-09 21:07:00,
2013-06-09 17:12:00,83.5,63.0,30.03,East,93,0.0,3.0,50,0.00,,,0.00,meteohub,2013-06-09 21:12:00,
2013-06-09 17:17:00,83.5,65.1,30.03,ESE,104,0.0,3.0,54,0.00,,,0.00,meteohub,2013-06-09 21:17:00,
2013-06-09 17:22:00,83.7,61.3,30.03,SE,126,2.0,3.0,47,0.00,,,0.00,meteohub,2013-06-09 21:22:00,
2013-06-09 17:27:00,83.1,62.6,30.03,SW,228,0.0,4.0,50,0.00,,,0.00,meteohub,2013-06-09 21:27:00,
2013-06-09 17:33:00,83.7,63.7,30.03,WSW,246,1.0,4.0,51,0.00,,,0.00,meteohub,2013-06-09 21:33:00,
2013-06-09 17:38:00,83.7,64.2,30.03,SSW,205,0.0,4.0,52,0.00,,,0.00,meteohub,2013-06-09 21:38:00,
2013-06-09 17:43:00,83.7,63.7,30.03,East,89,1.0,2.0,51,0.00,,,0.00,meteohub,2013-06-09 21:43:00,
2013-06-09 17:48:00,83.3,63.3,30.04,South,177,0.0,3.0,51,0.00,,,0.00,meteohub,2013-06-09 21:48:00,
2013-06-09 17:53:00,83.1,62.1,30.04,WNW,290,0.0,4.0,49,0.00,,,0.00,meteohub,2013-06-09 21:53:00,
2013-06-09 17:58:00,83.3,62.1,30.04,WNW,290,0.0,4.0,49,0.00,,,0.00,meteohub,2013-06-09 21:58:00,
2013-06-09 18:04:00,82.9,61.9,30.04,WNW,283,2.0,2.0,49,0.00,,,0.00,meteohub,2013-06-09 22:04:00,
2013-06-09 18:09:00,82.4,63.0,30.04,SSW,210,0.0,2.0,52,0.00,,,0.00,meteohub,2013-06-09 22:09:00,
2013-06-09 18:14:00,82.2,62.8,30.04,SSW,210,0.0,2.0,52,0.00,,,0.00,meteohub,2013-06-09 22:14:00,
2013-06-09 18:19:00,81.5,66.7,30.04,WSW,249,0.0,2.0,61,0.00,,,0.00,meteohub,2013-06-09 22:19:00,
2013-06-09 18:24:00,80.6,65.8,30.04,WSW,249,1.0,2.0,61,0.00,,,0.00,meteohub,2013-06-09 22:24:00,
2013-06-09 18:30:00,79.9,65.7,30.04,WSW,249,0.0,2.0,62,0.00,,,0.00,meteohub,2013-06-09 22:30:00,
2013-06-09 18:35:00,79.3,66.6,30.04,WSW,250,0.0,1.0,65,0.00,,,0.00,meteohub,2013-06-09 22:35:00,
2013-06-09 18:40:00,78.8,64.8,30.04,WSW,249,0.0,1.0,62,0.00,,,0.00,meteohub,2013-06-09 22:40:00,
2013-06-09 18:45:00,78.4,64.8,30.04,WSW,249,0.0,0.0,63,0.00,,,0.00,meteohub,2013-06-09 22:45:00,
2013-06-09 18:50:00,78.1,67.5,30.05,WSW,249,0.0,0.0,70,0.00,,,0.00,meteohub,2013-06-09 22:50:00,
2013-06-09 18:55:00,77.4,66.4,30.05,WSW,249,0.0,0.0,69,0.00,,,0.00,meteohub,2013-06-09 22:55:00,
2013-06-09 19:00:00,76.5,65.1,30.04,WSW,249,0.0,1.0,68,0.00,,,0.00,meteohub,2013-06-09 23:00:00,
2013-06-09 19:06:00,75.9,66.2,30.05,WSW,249,0.0,1.0,72,0.00,,,0.00,meteohub,2013-06-09 23:06:00,
2013-06-09 19:11:00,75.4,66.2,30.05,WSW,249,0.0,1.0,73,0.00,,,0.00,meteohub,2013-06-09 23:11:00,
2013-06-09 19:16:00,74.5,65.3,30.05,WSW,249,0.0,1.0,73,0.00,,,0.00,meteohub,2013-06-09 23:16:00,
2013-06-09 19:21:00,74.1,66.4,30.05,WSW,249,0.0,1.0,77,0.00,,,0.00,meteohub,2013-06-09 23:21:00,
2013-06-09 19:26:00,73.9,66.6,30.05,WSW,249,0.0,1.0,78,0.00,,,0.00,meteohub,2013-06-09 23:26:00,
2013-06-09 19:31:00,73.8,66.9,30.05,WSW,249,0.0,0.0,79,0.00,,,0.00,meteohub,2013-06-09 23:31:00,
2013-06-09 19:36:00,73.2,66.0,30.05,WSW,249,0.0,0.0,78,0.00,,,0.00,meteohub,2013-06-09 23:36:00,
2013-06-09 19:42:00,73.0,66.6,30.05,WSW,249,0.0,0.0,80,0.00,,,0.00,meteohub,2013-06-09 23:42:00,
2013-06-09 19:47:00,72.7,66.9,30.05,WSW,249,0.0,0.0,82,0.00,,,0.00,meteohub,2013-06-09 23:47:00,
2013-06-09 19:52:00,72.0,66.6,30.05,WSW,249,0.0,0.0,83,0.00,,,0.00,meteohub,2013-06-09 23:52:00,
2013-06-09 19:57:00,71.4,66.4,30.06,WSW,249,0.0,0.0,84,0.00,,,0.00,meteohub,2013-06-09 23:57:00,
2013-06-09 20:02:00,71.1,66.4,30.06,WSW,249,0.0,0.0,85,0.00,,,0.00,meteohub,2013-06-10 00:02:00,
2013-06-09 20:07:00,70.5,65.8,30.06,WSW,249,0.0,0.0,85,0.00,,,0.00,meteohub,2013-06-10 00:07:00,
2013-06-09 20:12:00,70.2,65.5,30.06,WSW,249,0.0,0.0,85,0.00,,,0.00,meteohub,2013-06-10 00:12:00,
2013-06-09 20:17:00,69.6,65.3,30.06,WSW,249,0.0,0.0,86,0.00,,,0.00,meteohub,2013-06-10 00:17:00,
2013-06-09 20:22:00,69.3,64.9,30.06,WSW,249,0.0,0.0,86,0.00,,,0.00,meteohub,2013-06-10 00:22:00,
2013-06-09 20:27:00,68.7,64.8,30.06,WSW,249,0.0,0.0,87,0.00,,,0.00,meteohub,2013-06-10 00:27:00,
2013-06-09 20:32:00,68.2,64.4,30.06,WSW,249,0.0,0.0,88,0.00,,,0.00,meteohub,2013-06-10 00:32:00,
2013-06-09 20:38:00,67.8,64.4,30.06,WSW,249,0.0,0.0,89,0.00,,,0.00,meteohub,2013-06-10 00:38:00,
2013-06-09 20:43:00,67.5,64.0,30.06,WSW,249,0.0,0.0,89,0.00,,,0.00,meteohub,2013-06-10 00:43:00,
2013-06-09 20:48:00,66.9,63.5,30.06,WSW,249,0.0,0.0,89,0.00,,,0.00,meteohub,2013-06-10 00:48:00,
2013-06-09 20:53:00,66.6,63.5,30.07,WSW,249,0.0,0.0,90,0.00,,,0.00,meteohub,2013-06-10 00:53:00,
2013-06-09 20:58:00,66.0,63.0,30.07,WSW,249,0.0,0.0,90,0.00,,,0.00,meteohub,2013-06-10 00:58:00,
2013-06-09 21:03:00,65.7,62.6,30.07,WSW,249,0.0,0.0,90,0.00,,,0.00,meteohub,2013-06-10 01:03:00,
2013-06-09 21:09:00,65.3,62.6,30.07,WSW,249,0.0,0.0,91,0.00,,,0.00,meteohub,2013-06-10 01:09:00,
2013-06-09 21:14:00,65.1,62.4,30.07,WSW,249,0.0,0.0,91,0.00,,,0.00,meteohub,2013-06-10 01:14:00,
2013-06-09 21:19:00,64.8,62.1,30.07,WSW,249,0.0,0.0,91,0.00,,,0.00,meteohub,2013-06-10 01:19:00,
2013-06-09 21:24:00,64.4,61.7,30.08,WSW,249,0.0,0.0,91,0.00,,,0.00,meteohub,2013-06-10 01:24:00,
2013-06-09 21:29:00,64.2,61.9,30.08,WSW,249,0.0,0.0,92,0.00,,,0.00,meteohub,2013-06-10 01:29:00,
2013-06-09 21:35:00,63.9,61.5,30.08,WSW,249,0.0,0.0,92,0.00,,,0.00,meteohub,2013-06-10 01:35:00,
2013-06-09 21:40:00,63.7,61.7,30.08,WSW,249,0.0,0.0,93,0.00,,,0.00,meteohub,2013-06-10 01:40:00,
2013-06-09 21:45:00,63.7,61.7,30.08,WSW,249,0.0,0.0,93,0.00,,,0.00,meteohub,2013-06-10 01:45:00,
2013-06-09 21:50:00,63.3,61.3,30.08,WSW,249,0.0,0.0,93,0.00,,,0.00,meteohub,2013-06-10 01:50:00,
2013-06-09 21:55:00,63.1,61.2,30.08,WSW,249,0.0,0.0,93,0.00,,,0.00,meteohub,2013-06-10 01:55:00,
2013-06-09 22:00:00,62.8,60.8,30.09,WSW,249,0.0,0.0,93,0.00,,,0.00,meteohub,2013-06-10 02:00:00,
2013-06-09 22:05:00,62.8,61.0,30.09,WSW,249,0.0,0.0,94,0.00,,,0.00,meteohub,2013-06-10 02:05:00,
2013-06-09 22:10:00,62.4,60.6,30.09,WSW,249,0.0,0.0,94,0.00,,,0.00,meteohub,2013-06-10 02:10:00,
2013-06-09 22:15:00,62.2,60.4,30.09,WSW,249,0.0,0.0,94,0.00,,,0.00,meteohub,2013-06-10 02:15:00,
2013-06-09 22:21:00,62.1,60.6,30.09,WSW,249,0.0,0.0,95,0.00,,,0.00,meteohub,2013-06-10 02:21:00,
2013-06-09 22:26:00,61.9,60.4,30.09,WSW,249,0.0,0.0,95,0.00,,,0.00,meteohub,2013-06-10 02:26:00,
2013-06-09 22:31:00,61.7,60.3,30.08,WSW,249,0.0,0.0,95,0.00,,,0.00,meteohub,2013-06-10 02:31:00,
2013-06-09 22:36:00,61.9,60.4,30.08,NW,324,0.0,0.0,95,0.00,,,0.00,meteohub,2013-06-10 02:36:00,
2013-06-09 22:42:00,61.5,60.1,30.08,NW,325,0.0,0.0,95,0.00,,,0.00,meteohub,2013-06-10 02:42:00,
2013-06-09 22:47:00,61.3,60.3,30.08,NW,325,0.0,0.0,96,0.00,,,0.00,meteohub,2013-06-10 02:47:00,
2013-06-09 22:52:00,61.3,60.3,30.08,NW,325,0.0,0.0,96,0.00,,,0.00,meteohub,2013-06-10 02:52:00,
2013-06-09 22:57:00,61.2,59.7,30.08,NW,324,0.0,0.0,95,0.00,,,0.00,meteohub,2013-06-10 02:57:00,
2013-06-09 23:02:00,61.0,59.5,30.08,NW,325,0.0,0.0,95,0.00,,,0.00,meteohub,2013-06-10 03:02:00,
2013-06-09 23:08:00,60.6,59.5,30.08,NW,324,0.0,0.0,96,0.00,,,0.00,meteohub,2013-06-10 03:08:00,
2013-06-09 23:13:00,60.6,59.5,30.08,NW,325,0.0,0.0,96,0.00,,,0.00,meteohub,2013-06-10 03:13:00,
2013-06-09 23:18:00,60.6,59.5,30.08,NW,325,0.0,0.0,96,0.00,,,0.00,meteohub,2013-06-10 03:18:00,
2013-06-09 23:23:00,60.4,59.4,30.08,NW,324,0.0,0.0,96,0.00,,,0.00,meteohub,2013-06-10 03:23:00,
2013-06-09 23:28:00,60.4,59.4,30.08,NW,325,0.0,0.0,96,0.00,,,0.00,meteohub,2013-06-10 03:28:00,
2013-06-09 23:33:00,60.6,59.5,30.08,NW,325,0.0,0.0,96,0.00,,,0.00,meteohub,2013-06-10 03:33:00,
2013-06-09 23:38:00,60.8,59.9,30.07,NW,325,0.0,0.0,97,0.00,,,0.00,meteohub,2013-06-10 03:38:00,
2013-06-09 23:44:00,61.0,60.1,30.07,NW,325,0.0,0.0,97,0.00,,,0.00,meteohub,2013-06-10 03:44:00,
2013-06-09 23:49:00,60.8,59.9,30.08,NW,325,0.0,0.0,97,0.00,,,0.00,meteohub,2013-06-10 03:49:00,
2013-06-09 23:54:00,60.6,59.7,30.08,NW,325,0.0,0.0,97,0.00,,,0.00,meteohub,2013-06-10 03:54:00,
2013-06-09 23:59:00,60.4,59.5,30.07,NW,325,0.0,0.0,97,0.00,,,0.00,meteohub,2013-06-10 03:59:00,